Time;durP1;ratioP1;P1;durP2;ratioP2;P2;SDS_P1;SDS_P2;PMS_P1;PMS_P2;Temp;Humidity;BMP_temperature;BMP_pressure;BME280_temperature;BME280_humidity;BME280_pressure;Samples;Min_cycle;Max_cycle;Signal;HPM_P1;HPM_P2
2021/11/10 00:01:42;;;;;;;;;;;11.80;99.90;;;;;;5014383;28;19935;-77
2021/11/10 00:04:08;;;;;;;;;;;11.60;99.90;;;;;;5014441;28;20352;-78
2021/11/10 00:06:34;;;;;;;;;;;11.30;99.90;;;;;;5014309;28;19949;-78
2021/11/10 00:09:00;;;;;;;;;;;11.40;99.90;;;;;;5014727;28;19992;-77
2021/11/10 00:11:25;;;;;;;;;;;11.30;99.90;;;;;;5014014;28;20011;-78
2021/11/10 00:13:52;;;;;;;;;;;11.50;99.90;;;;;;5014217;28;20012;-77
2021/11/10 00:16:18;;;;;;;;;;;11.50;99.90;;;;;;5014171;28;20286;-77
2021/11/10 00:18:43;;;;;;;;;;;11.60;99.90;;;;;;5012888;28;19906;-76
2021/11/10 00:21:09;;;;;;;;;;;11.40;99.90;;;;;;5014284;28;19912;-77
2021/11/10 00:23:34;;;;;;;;;;;11.20;99.90;;;;;;5014283;28;20361;-77
2021/11/10 00:26:01;;;;;;;;;;;11.10;99.90;;;;;;5014056;28;19909;-77
2021/11/10 00:28:27;;;;;;;;;;;11.20;99.90;;;;;;5014018;28;19913;-78
2021/11/10 00:30:52;;;;;;;;;;;11.30;99.90;;;;;;5014259;28;20270;-77
2021/11/10 00:33:18;;;;;;;;;;;11.00;99.90;;;;;;5014010;28;20381;-77
2021/11/10 00:35:44;;;;;;;;;;;10.80;99.90;;;;;;5012711;28;20027;-77
2021/11/10 00:38:09;;;;;;;;;;;10.60;99.90;;;;;;5013918;28;19984;-77
2021/11/10 00:40:35;;;;;;;;;;;10.40;99.90;;;;;;5014238;28;19906;-77
2021/11/10 00:43:01;;;;;;;;;;;10.40;99.90;;;;;;5014306;28;19906;-77
2021/11/10 00:45:27;;;;;;;;;;;10.30;99.90;;;;;;5013857;28;20258;-77
2021/11/10 00:47:52;;;;;;;;;;;10.20;99.90;;;;;;5013868;28;19913;-77
2021/11/10 00:50:18;;;;;;;;;;;10.30;99.90;;;;;;5015794;28;19980;-77
2021/11/10 00:52:43;;;;;;;;;;;10.30;99.90;;;;;;5018039;28;19924;-78
2021/11/10 00:55:09;;;;;;;;;;;10.40;99.90;;;;;;5017912;28;20290;-77
2021/11/10 00:57:34;;;;;;;;;;;10.50;99.90;;;;;;5017744;28;19951;-77
2021/11/10 01:00:00;;;;;;;;;;;10.40;99.90;;;;;;5017995;28;19912;-77
2021/11/10 01:02:26;;;;;;;;;;;10.20;99.90;;;;;;5018079;28;19915;-77
2021/11/10 01:04:51;;;;;;;;;;;10.60;99.90;;;;;;5016394;28;19955;-77
2021/11/10 01:07:17;;;;;;;;;;;10.80;99.90;;;;;;5017676;28;20362;-78
2021/11/10 01:09:44;;;;;;;;;;;10.80;99.90;;;;;;5017220;28;19913;-78
2021/11/10 01:12:11;;;;;;;;;;;10.60;99.90;;;;;;5017285;28;20385;-78
2021/11/10 01:14:37;;;;;;;;;;;10.60;99.90;;;;;;5017423;28;19912;-77
2021/11/10 01:17:03;;;;;;;;;;;10.50;99.90;;;;;;5017650;28;19909;-77
2021/11/10 01:19:28;;;;;;;;;;;10.50;99.90;;;;;;5017323;28;20278;-77
2021/11/10 01:21:54;;;;;;;;;;;10.40;99.90;;;;;;5017353;28;19906;-77
2021/11/10 01:24:19;;;;;;;;;;;10.40;99.90;;;;;;5015982;28;19905;-77
2021/11/10 01:26:45;;;;;;;;;;;10.30;99.90;;;;;;5017357;28;19917;-77
2021/11/10 01:29:11;;;;;;;;;;;10.10;99.90;;;;;;5017303;28;20382;-77
2021/11/10 01:31:36;;;;;;;;;;;10.20;99.90;;;;;;5017181;28;19945;-78
2021/11/10 01:34:07;;;;;;;;;;;10.30;99.90;;;;;;5017192;28;19905;-77
2021/11/10 01:36:33;;;;;;;;;;;10.30;99.90;;;;;;5017315;28;19955;-77
2021/11/10 01:38:59;;;;;;;;;;;10.30;99.90;;;;;;5017329;28;19905;-77
2021/11/10 01:41:24;;;;;;;;;;;10.10;99.90;;;;;;5017137;28;19912;-77
2021/11/10 01:43:50;;;;;;;;;;;10.20;99.90;;;;;;5016971;28;19920;-77
2021/11/10 01:46:15;;;;;;;;;;;10.20;99.90;;;;;;5015547;28;19913;-78
2021/11/10 01:48:41;;;;;;;;;;;10.20;99.90;;;;;;5016816;28;19905;-78
2021/11/10 01:51:07;;;;;;;;;;;10.30;99.90;;;;;;5016864;28;19906;-78
2021/11/10 01:53:34;;;;;;;;;;;10.40;99.90;;;;;;5016810;28;19996;-78
2021/11/10 01:56:00;;;;;;;;;;;10.50;99.90;;;;;;5015441;28;19905;-77
2021/11/10 01:58:26;;;;;;;;;;;10.50;99.90;;;;;;5016879;28;19909;-77
2021/11/10 02:00:52;;;;;;;;;;;10.50;99.90;;;;;;5015273;28;19906;-77
2021/11/10 02:03:18;;;;;;;;;;;10.50;99.90;;;;;;5016627;28;19909;-77
2021/11/10 02:05:44;;;;;;;;;;;10.50;99.90;;;;;;5016512;28;19949;-77
2021/11/10 02:08:09;;;;;;;;;;;10.40;99.90;;;;;;5016488;28;19955;-78
2021/11/10 02:10:35;;;;;;;;;;;10.60;99.90;;;;;;5015181;28;19906;-77
2021/11/10 02:13:01;;;;;;;;;;;10.60;99.90;;;;;;5016303;28;19921;-78
2021/11/10 02:15:26;;;;;;;;;;;10.70;99.90;;;;;;5016671;28;19906;-78
2021/11/10 02:17:54;;;;;;;;;;;10.80;99.90;;;;;;5016319;28;19955;-78
2021/11/10 02:20:20;;;;;;;;;;;10.80;99.90;;;;;;5016310;28;19910;-77
2021/11/10 02:22:48;;;;;;;;;;;10.60;99.90;;;;;;5016215;28;20421;-77
2021/11/10 02:25:14;;;;;;;;;;;10.60;99.90;;;;;;5014954;28;19909;-78
2021/11/10 02:27:40;;;;;;;;;;;11.00;99.90;;;;;;5016473;28;20277;-78
2021/11/10 02:30:11;;;;;;;;;;;10.90;99.90;;;;;;5016262;28;19945;-77
2021/11/10 02:32:37;;;;;;;;;;;10.80;99.90;;;;;;5015921;28;19905;-77
2021/11/10 02:35:04;;;;;;;;;;;11.00;99.90;;;;;;5014785;28;20421;-78
2021/11/10 02:37:29;;;;;;;;;;;11.00;99.90;;;;;;5015994;28;19906;-77
2021/11/10 02:39:55;;;;;;;;;;;10.80;99.90;;;;;;5016141;28;19912;-77
2021/11/10 02:42:21;;;;;;;;;;;10.80;99.90;;;;;;5015831;28;19955;-78
2021/11/10 02:44:48;;;;;;;;;;;10.70;99.90;;;;;;5015883;28;19913;-76
2021/11/10 02:47:14;;;;;;;;;;;10.30;99.90;;;;;;5015652;28;19968;-78
2021/11/10 02:49:40;;;;;;;;;;;10.20;99.90;;;;;;5015896;28;19905;-78
2021/11/10 02:52:06;;;;;;;;;;;10.10;99.90;;;;;;5014382;28;20274;-77
2021/11/10 02:54:33;;;;;;;;;;;10.10;99.90;;;;;;5014340;28;19913;-76
2021/11/10 02:56:59;;;;;;;;;;;10.00;99.90;;;;;;5015564;28;19909;-77
2021/11/10 02:59:25;;;;;;;;;;;10.00;99.90;;;;;;5015952;28;19988;-77
2021/11/10 03:01:51;;;;;;;;;;;10.00;99.90;;;;;;5015504;28;19953;-77
2021/11/10 03:04:21;;;;;;;;;;;10.00;99.90;;;;;;5014170;28;19905;-77
2021/11/10 03:06:46;;;;;;;;;;;9.90;99.90;;;;;;5015290;28;19913;-78
2021/11/10 03:09:15;;;;;;;;;;;9.80;99.90;;;;;;5014052;28;20290;-77
2021/11/10 03:11:40;;;;;;;;;;;9.80;99.90;;;;;;5013434;28;19999;-77
2021/11/10 03:14:06;;;;;;;;;;;9.90;99.90;;;;;;5015474;28;19913;-77
2021/11/10 03:16:31;;;;;;;;;;;9.80;99.90;;;;;;5015212;28;19906;-77
2021/11/10 03:18:57;;;;;;;;;;;9.80;99.90;;;;;;5015148;28;20370;-78
2021/11/10 03:21:23;;;;;;;;;;;9.90;99.90;;;;;;5013867;28;19969;-78
2021/11/10 03:23:48;;;;;;;;;;;9.90;99.90;;;;;;5015294;28;19906;-77
2021/11/10 03:26:14;;;;;;;;;;;10.00;99.90;;;;;;5014934;28;19916;-77
2021/11/10 03:28:40;;;;;;;;;;;10.00;99.90;;;;;;5015095;28;19995;-77
2021/11/10 03:31:05;;;;;;;;;;;10.10;99.90;;;;;;5014949;28;19947;-78
2021/11/10 03:33:31;;;;;;;;;;;10.00;99.90;;;;;;5015337;28;19905;-77
2021/11/10 03:35:57;;;;;;;;;;;10.00;99.90;;;;;;5013612;28;19906;-78
2021/11/10 03:38:22;;;;;;;;;;;10.10;99.90;;;;;;5014793;28;19959;-78
2021/11/10 03:40:48;;;;;;;;;;;10.30;99.90;;;;;;5014802;28;19912;-77
2021/11/10 03:43:13;;;;;;;;;;;10.60;99.90;;;;;;5014714;28;19912;-77
2021/11/10 03:45:39;;;;;;;;;;;10.40;99.90;;;;;;5014715;28;19905;-77
2021/11/10 03:48:05;;;;;;;;;;;10.20;99.90;;;;;;5013323;28;19931;-77
2021/11/10 03:50:31;;;;;;;;;;;10.20;99.90;;;;;;5014751;28;19936;-77
2021/11/10 03:52:56;;;;;;;;;;;10.30;99.90;;;;;;5014655;28;20324;-78
2021/11/10 03:55:22;;;;;;;;;;;10.20;99.90;;;;;;5014577;28;19905;-77
2021/11/10 03:57:48;;;;;;;;;;;10.10;99.90;;;;;;5014669;28;20313;-77
2021/11/10 04:00:13;;;;;;;;;;;10.20;99.90;;;;;;5013190;28;19906;-77
2021/11/10 04:02:39;;;;;;;;;;;10.20;99.90;;;;;;5014510;28;19905;-77
2021/11/10 04:05:05;;;;;;;;;;;10.00;99.90;;;;;;5014474;28;19996;-78
2021/11/10 04:07:30;;;;;;;;;;;9.90;99.90;;;;;;5014065;28;19910;-77
2021/11/10 04:09:56;;;;;;;;;;;9.90;99.90;;;;;;5013053;28;19996;-77
2021/11/10 04:12:21;;;;;;;;;;;9.80;99.90;;;;;;5013986;28;19955;-77
2021/11/10 04:14:47;;;;;;;;;;;9.70;99.90;;;;;;5014329;28;19937;-77
2021/11/10 04:17:13;;;;;;;;;;;9.70;99.90;;;;;;5014253;28;20001;-77
2021/11/10 04:19:38;;;;;;;;;;;9.50;99.90;;;;;;5014179;28;19987;-78
2021/11/10 04:22:05;;;;;;;;;;;9.40;99.90;;;;;;5014231;28;19996;-77
2021/11/10 04:24:30;;;;;;;;;;;9.30;99.90;;;;;;5013389;28;19906;-76
2021/11/10 04:26:56;;;;;;;;;;;9.20;99.90;;;;;;5014173;28;19913;-77
2021/11/10 04:29:21;;;;;;;;;;;9.20;99.90;;;;;;5014058;28;19992;-77
2021/11/10 04:31:47;;;;;;;;;;;9.30;99.90;;;;;;5012788;28;20377;-78
2021/11/10 04:34:13;;;;;;;;;;;9.40;99.90;;;;;;5014052;28;19905;-76
2021/11/10 04:36:38;;;;;;;;;;;9.30;99.90;;;;;;5014054;28;20278;-77
2021/11/10 04:39:04;;;;;;;;;;;9.10;99.90;;;;;;5013882;28;19905;-77
2021/11/10 04:41:30;;;;;;;;;;;9.00;99.90;;;;;;5014093;28;19928;-77
2021/11/10 04:43:56;;;;;;;;;;;9.10;99.90;;;;;;5013980;28;19996;-77
2021/11/10 04:46:35;;;;;;;;;;;8.90;99.90;;;;;;5013845;28;19910;-76
2021/11/10 04:49:01;;;;;;;;;;;8.60;99.90;;;;;;5014149;28;19916;-77
2021/11/10 04:51:26;;;;;;;;;;;8.50;99.90;;;;;;5013847;28;19910;-78
2021/11/10 04:53:53;;;;;;;;;;;8.50;99.90;;;;;;5014145;28;19912;-78
2021/11/10 04:56:21;;;;;;;;;;;8.50;99.90;;;;;;5012596;28;19913;-78
2021/11/10 04:58:47;;;;;;;;;;;8.60;99.90;;;;;;5013968;28;19905;-77
2021/11/10 05:01:22;;;;;;;;;;;8.60;99.90;;;;;;5013780;28;19912;-77
2021/11/10 05:03:47;;;;;;;;;;;8.50;99.90;;;;;;5013834;28;20433;-77
2021/11/10 05:06:13;;;;;;;;;;;8.70;99.90;;;;;;5013786;28;20035;-78
2021/11/10 05:08:38;;;;;;;;;;;8.50;99.90;;;;;;5012389;28;19912;-77
2021/11/10 05:11:04;;;;;;;;;;;8.30;99.90;;;;;;5013919;28;20293;-77
2021/11/10 05:13:30;;;;;;;;;;;8.30;99.90;;;;;;5012110;28;19905;-77
2021/11/10 05:15:55;;;;;;;;;;;8.30;99.90;;;;;;5013636;28;19907;-77
2021/11/10 05:18:21;;;;;;;;;;;8.40;99.90;;;;;;5013599;28;20336;-77
2021/11/10 05:20:49;;;;;;;;;;;8.40;99.90;;;;;;5013422;28;20298;-77
2021/11/10 05:23:15;;;;;;;;;;;8.40;99.90;;;;;;5013883;28;19905;-77
2021/11/10 05:25:41;;;;;;;;;;;8.40;99.90;;;;;;5013583;28;20377;-77
2021/11/10 05:28:07;;;;;;;;;;;8.20;99.90;;;;;;5013447;28;19910;-77
2021/11/10 05:30:32;;;;;;;;;;;8.20;99.90;;;;;;5013542;28;19905;-77
2021/11/10 05:32:58;;;;;;;;;;;8.10;99.90;;;;;;5013609;28;19905;-77
2021/11/10 05:35:24;;;;;;;;;;;8.10;99.90;;;;;;5015333;28;19906;-77
2021/11/10 05:37:49;;;;;;;;;;;8.00;99.90;;;;;;5017114;28;19912;-78
2021/11/10 05:40:15;;;;;;;;;;;8.30;99.90;;;;;;5017095;28;20281;-77
2021/11/10 05:42:41;;;;;;;;;;;8.40;99.90;;;;;;5017045;28;19912;-77
2021/11/10 05:45:07;;;;;;;;;;;8.60;99.90;;;;;;5016991;28;19905;-77
2021/11/10 05:47:32;;;;;;;;;;;8.70;99.90;;;;;;5015574;28;19910;-78
2021/11/10 05:49:58;;;;;;;;;;;8.50;99.90;;;;;;5017063;28;19906;-76
2021/11/10 05:52:24;;;;;;;;;;;8.30;99.90;;;;;;5016928;28;20317;-78
2021/11/10 05:54:49;;;;;;;;;;;8.30;99.90;;;;;;5017001;28;19906;-77
2021/11/10 05:57:15;;;;;;;;;;;8.50;99.90;;;;;;5017022;28;19963;-77
2021/11/10 05:59:41;;;;;;;;;;;8.70;99.90;;;;;;5016652;28;20330;-77
2021/11/10 06:02:07;;;;;;;;;;;8.80;99.90;;;;;;5016689;28;19992;-78
2021/11/10 06:04:33;;;;;;;;;;;8.90;99.90;;;;;;5016549;28;19945;-78
2021/11/10 06:06:58;;;;;;;;;;;8.70;99.90;;;;;;5016716;28;19999;-77
2021/11/10 06:09:24;;;;;;;;;;;8.70;99.90;;;;;;5016687;28;19912;-77
2021/11/10 06:11:50;;;;;;;;;;;8.80;99.90;;;;;;5016412;28;19925;-78
2021/11/10 06:14:15;;;;;;;;;;;8.80;99.90;;;;;;5016391;28;19909;-77
2021/11/10 06:16:41;;;;;;;;;;;8.70;99.90;;;;;;5016390;28;19913;-77
2021/11/10 06:19:07;;;;;;;;;;;8.50;99.90;;;;;;5016583;28;19941;-77
2021/11/10 06:21:32;;;;;;;;;;;8.40;99.90;;;;;;5016378;28;19906;-77
2021/11/10 06:23:58;;;;;;;;;;;8.40;99.90;;;;;;5014932;28;20309;-78
2021/11/10 06:26:24;;;;;;;;;;;8.30;99.90;;;;;;5016056;28;19979;-77
2021/11/10 06:28:50;;;;;;;;;;;8.20;99.90;;;;;;5016197;28;19948;-77
2021/11/10 06:31:15;;;;;;;;;;;8.30;99.90;;;;;;5016208;28;19905;-78
2021/11/10 06:33:41;;;;;;;;;;;8.40;99.90;;;;;;5016113;28;20282;-77
2021/11/10 06:36:06;;;;;;;;;;;8.50;99.90;;;;;;5016140;28;19905;-78
2021/11/10 06:38:32;;;;;;;;;;;8.40;99.90;;;;;;5015861;28;19905;-78
2021/11/10 06:40:58;;;;;;;;;;;8.50;99.90;;;;;;5015708;28;20324;-77
2021/11/10 06:43:25;;;;;;;;;;;8.40;99.90;;;;;;5015792;28;19944;-77
2021/11/10 06:45:51;;;;;;;;;;;8.40;99.90;;;;;;5015849;28;20004;-77
2021/11/10 06:48:17;;;;;;;;;;;8.40;99.90;;;;;;5015031;28;19913;-77
2021/11/10 06:50:42;;;;;;;;;;;8.40;99.90;;;;;;5015697;28;19909;-77
2021/11/10 06:53:09;;;;;;;;;;;8.40;99.90;;;;;;5015919;28;20354;-77
2021/11/10 06:55:35;;;;;;;;;;;8.50;99.90;;;;;;5015558;28;19906;-78
2021/11/10 06:58:01;;;;;;;;;;;8.50;99.90;;;;;;5015500;28;19905;-79
2021/11/10 07:00:26;;;;;;;;;;;8.40;99.90;;;;;;5015555;28;19909;-79
2021/11/10 07:02:52;;;;;;;;;;;8.40;99.90;;;;;;5015646;28;19982;-79
2021/11/10 07:05:18;;;;;;;;;;;8.50;99.90;;;;;;5015429;28;19949;-79
2021/11/10 07:07:43;;;;;;;;;;;8.40;99.90;;;;;;5014011;28;19909;-79
2021/11/10 07:10:09;;;;;;;;;;;8.30;99.90;;;;;;5015354;28;19912;-80
2021/11/10 07:12:34;;;;;;;;;;;8.30;99.90;;;;;;5013763;28;19991;-79
2021/11/10 07:15:00;;;;;;;;;;;8.30;99.90;;;;;;5013966;28;19905;-79
2021/11/10 07:17:26;;;;;;;;;;;8.20;99.90;;;;;;5015346;28;20429;-79
2021/11/10 07:19:52;;;;;;;;;;;8.20;99.90;;;;;;5013807;28;19906;-79
2021/11/10 07:22:18;;;;;;;;;;;8.10;99.90;;;;;;5015199;28;19956;-79
2021/11/10 07:24:44;;;;;;;;;;;8.00;99.90;;;;;;5015063;28;19905;-79
2021/11/10 07:27:09;;;;;;;;;;;7.90;99.90;;;;;;5014924;28;20273;-79
2021/11/10 07:29:35;;;;;;;;;;;7.90;99.90;;;;;;5015289;28;19905;-80
2021/11/10 07:32:01;;;;;;;;;;;8.00;99.90;;;;;;5015218;28;19910;-79
2021/11/10 07:34:27;;;;;;;;;;;8.10;99.90;;;;;;5013674;28;19913;-79
2021/11/10 07:36:57;;;;;;;;;;;8.10;99.90;;;;;;5015108;28;19948;-76
2021/11/10 07:39:23;;;;;;;;;;;8.20;99.90;;;;;;5014914;28;20358;-77
2021/11/10 07:41:51;;;;;;;;;;;8.10;99.90;;;;;;5013524;28;19911;-77
2021/11/10 07:44:16;;;;;;;;;;;8.00;99.90;;;;;;5014791;28;19909;-78
2021/11/10 07:46:50;;;;;;;;;;;7.90;99.90;;;;;;5014646;28;19916;-79
2021/11/10 07:49:20;;;;;;;;;;;8.00;99.90;;;;;;5014960;28;19941;-79
2021/11/10 07:51:46;;;;;;;;;;;8.00;99.90;;;;;;5014648;28;20338;-80
2021/11/10 07:54:12;;;;;;;;;;;8.00;99.90;;;;;;5014576;28;19905;-78
2021/11/10 07:56:37;;;;;;;;;;;7.90;99.90;;;;;;5014591;28;19909;-79
2021/11/10 07:59:03;;;;;;;;;;;7.90;99.90;;;;;;5015063;28;19960;-79
2021/11/10 08:01:29;;;;;;;;;;;7.90;99.90;;;;;;5014441;28;20327;-78
2021/11/10 08:03:54;;;;;;;;;;;8.00;99.90;;;;;;5014416;28;19945;-79
2021/11/10 08:06:20;;;;;;;;;;;8.10;99.90;;;;;;5014327;28;19978;-79
2021/11/10 08:08:46;;;;;;;;;;;8.10;99.90;;;;;;5014344;28;20091;-79
2021/11/10 08:11:12;;;;;;;;;;;8.20;99.90;;;;;;5014176;28;20000;-77
2021/11/10 08:13:41;;;;;;;;;;;8.30;99.90;;;;;;5013927;28;20378;-77
2021/11/10 08:16:07;;;;;;;;;;;8.20;99.90;;;;;;5014574;28;19912;-77
2021/11/10 08:18:32;;;;;;;;;;;8.40;99.90;;;;;;5014220;28;20358;-77
2021/11/10 08:20:58;;;;;;;;;;;8.60;99.90;;;;;;5014180;28;19997;-77
2021/11/10 08:23:26;;;;;;;;;;;8.80;99.90;;;;;;5014255;28;19905;-77
2021/11/10 08:25:52;;;;;;;;;;;8.90;99.90;;;;;;5014128;28;19969;-77
2021/11/10 08:28:19;;;;;;;;;;;9.00;99.90;;;;;;5014367;28;19916;-78
2021/11/10 08:30:45;;;;;;;;;;;9.30;99.90;;;;;;5014361;28;19906;-77
2021/11/10 08:33:10;;;;;;;;;;;9.50;99.90;;;;;;5014031;28;19912;-77
2021/11/10 08:35:36;;;;;;;;;;;9.60;99.90;;;;;;5014038;28;20298;-77
2021/11/10 08:38:02;;;;;;;;;;;9.80;99.90;;;;;;5013988;28;19906;-77
2021/11/10 08:40:28;;;;;;;;;;;9.90;99.90;;;;;;5013848;28;19905;-78
2021/11/10 08:42:54;;;;;;;;;;;10.00;99.90;;;;;;5014009;28;19905;-78
2021/11/10 08:45:25;;;;;;;;;;;10.20;99.90;;;;;;5013937;28;20282;-78
2021/11/10 08:47:51;;;;;;;;;;;10.10;99.90;;;;;;5014252;28;19960;-77
2021/11/10 08:50:19;;;;;;;;;;;10.30;99.90;;;;;;5013836;28;19905;-78
2021/11/10 08:52:46;;;;;;;;;;;10.40;99.90;;;;;;5013838;28;19960;-78
2021/11/10 08:55:13;;;;;;;;;;;10.70;99.90;;;;;;5013752;28;19948;-78
2021/11/10 08:57:38;;;;;;;;;;;10.90;99.90;;;;;;5012439;28;19906;-78
2021/11/10 09:00:06;;;;;;;;;;;11.10;99.90;;;;;;5013914;28;19960;-79
2021/11/10 09:02:31;;;;;;;;;;;12.20;99.90;;;;;;5013565;28;19906;-78
2021/11/10 09:04:57;;;;;;;;;;;13.30;98.10;;;;;;5012427;28;19906;-79
2021/11/10 09:07:23;;;;;;;;;;;14.30;94.60;;;;;;5013591;28;19910;-78
2021/11/10 09:09:48;;;;;;;;;;;15.60;90.90;;;;;;5014406;28;20365;-79
2021/11/10 09:12:14;;;;;;;;;;;16.30;85.90;;;;;;5017554;28;19966;-79
2021/11/10 09:14:39;;;;;;;;;;;16.00;85.40;;;;;;5018123;28;19912;-77
2021/11/10 09:17:05;;;;;;;;;;;16.20;84.70;;;;;;5016190;28;19909;-78
2021/11/10 09:19:31;;;;;;;;;;;16.70;80.80;;;;;;5017447;28;19988;-79
2021/11/10 09:21:56;;;;;;;;;;;17.50;78.80;;;;;;5016150;28;20273;-77
2021/11/10 09:24:22;;;;;;;;;;;17.70;77.60;;;;;;5016168;28;19948;-78
2021/11/10 09:26:49;;;;;;;;;;;18.30;75.60;;;;;;5017445;28;19915;-78
2021/11/10 09:29:20;;;;;;;;;;;18.40;74.20;;;;;;5016970;28;19905;-80
2021/11/10 09:31:47;;;;;;;;;;;19.10;72.40;;;;;;5015767;28;20325;-79
2021/11/10 09:34:14;;;;;;;;;;;19.00;71.10;;;;;;5017335;28;19912;-79
2021/11/10 09:36:49;;;;;;;;;;;18.40;72.60;;;;;;5017248;28;19945;-80
2021/11/10 09:39:20;;;;;;;;;;;18.00;74.30;;;;;;5015651;28;19905;-79
2021/11/10 09:41:47;;;;;;;;;;;18.20;73.40;;;;;;5017311;28;19996;-79
2021/11/10 09:44:13;;;;;;;;;;;18.20;73.30;;;;;;5016988;28;20000;-79
2021/11/10 09:46:39;;;;;;;;;;;18.10;73.20;;;;;;5016926;28;20425;-79
2021/11/10 09:49:05;;;;;;;;;;;18.30;72.90;;;;;;5016972;28;19905;-79
2021/11/10 09:51:31;;;;;;;;;;;18.20;71.30;;;;;;5016962;28;19905;-79
2021/11/10 09:53:57;;;;;;;;;;;18.10;71.00;;;;;;5017005;28;20007;-80
2021/11/10 09:56:24;;;;;;;;;;;18.30;70.30;;;;;;5015531;28;19928;-78
2021/11/10 09:58:50;;;;;;;;;;;18.70;70.70;;;;;;5016769;28;19905;-78
2021/11/10 10:01:16;;;;;;;;;;;19.00;70.40;;;;;;5015388;28;20433;-79
2021/11/10 10:03:44;;;;;;;;;;;19.10;69.50;;;;;;5015286;28;19948;-79
2021/11/10 10:06:12;;;;;;;;;;;19.60;69.10;;;;;;5016415;28;20372;-79
2021/11/10 10:08:38;;;;;;;;;;;20.20;66.90;;;;;;5016510;28;20048;-79
2021/11/10 10:11:03;;;;;;;;;;;20.20;66.10;;;;;;5016169;28;19980;-78
2021/11/10 10:13:29;;;;;;;;;;;20.60;65.30;;;;;;5016905;28;19940;-78
2021/11/10 10:15:55;;;;;;;;;;;21.00;64.20;;;;;;5016372;28;20362;-79
2021/11/10 10:18:22;;;;;;;;;;;21.70;62.30;;;;;;5016293;28;19913;-78
2021/11/10 10:20:58;;;;;;;;;;;22.10;60.90;;;;;;5015989;28;20000;-81
2021/11/10 10:23:26;;;;;;;;;;;22.40;59.30;;;;;;5014240;28;20000;-80
2021/11/10 10:25:54;;;;;;;;;;;23.10;58.50;;;;;;5016188;28;19929;-80
2021/11/10 10:28:25;;;;;;;;;;;24.10;56.30;;;;;;5014820;28;19960;-80
2021/11/10 10:30:56;;;;;;;;;;;24.70;54.40;;;;;;5016232;28;19905;-80
2021/11/10 10:33:24;;;;;;;;;;;24.90;53.60;;;;;;5016168;28;19912;-79
2021/11/10 10:36:01;;;;;;;;;;;26.60;52.40;;;;;;5016235;28;19955;-80
2021/11/10 10:38:35;;;;;;;;;;;28.40;49.20;;;;;;5015973;28;20374;-79
2021/11/10 10:41:01;;;;;;;;;;;27.30;48.70;;;;;;5016135;28;20000;-80
2021/11/10 10:43:28;;;;;;;;;;;26.70;49.30;;;;;;5015847;28;19906;-80
2021/11/10 10:45:55;;;;;;;;;;;26.60;49.70;;;;;;5016093;28;19905;-80
2021/11/10 10:48:24;;;;;;;;;;;27.50;48.40;;;;;;5015754;28;20000;-79
2021/11/10 10:50:57;;;;;;;;;;;27.20;48.50;;;;;;5014765;28;20004;-80
2021/11/10 10:53:41;;;;;;;;;;;27.80;48.10;;;;;;5015715;28;20000;-80
2021/11/10 10:56:19;;;;;;;;;;;28.10;47.50;;;;;;5015671;28;20286;-79
2021/11/10 10:58:45;;;;;;;;;;;28.50;46.30;;;;;;5015648;28;19956;-79
2021/11/10 11:01:18;;;;;;;;;;;26.50;48.50;;;;;;5015614;28;19975;-79
2021/11/10 11:04:23;;;;;;;;;;;27.00;48.50;;;;;;5015479;28;19905;-79
2021/11/10 11:06:57;;;;;;;;;;;26.40;47.90;;;;;;5013548;28;19952;-79
2021/11/10 11:09:27;;;;;;;;;;;24.40;51.30;;;;;;5013014;28;19959;-79
2021/11/10 11:12:03;;;;;;;;;;;24.00;52.70;;;;;;5014171;28;20274;-78
2021/11/10 11:17:05;;;;;;;;;;;22.60;54.60;;;;;;5015004;28;20329;-79
2021/11/10 11:19:33;;;;;;;;;;;22.30;54.50;;;;;;5015583;28;19937;-79
2021/11/10 11:21:59;;;;;;;;;;;24.50;52.80;;;;;;5015173;28;19909;-80
2021/11/10 11:24:38;;;;;;;;;;;25.50;50.80;;;;;;5015111;28;19912;-78
2021/11/10 11:27:22;;;;;;;;;;;26.80;48.70;;;;;;5013742;28;20004;-79
2021/11/10 11:30:00;;;;;;;;;;;27.90;47.10;;;;;;5014993;28;19905;-79
2021/11/10 11:32:36;;;;;;;;;;;28.10;47.10;;;;;;5014916;28;19928;-79
2021/11/10 11:35:05;;;;;;;;;;;28.30;45.40;;;;;;5015033;28;19905;-79
2021/11/10 11:37:31;;;;;;;;;;;27.20;47.50;;;;;;5015203;28;19905;-80
2021/11/10 11:40:10;;;;;;;;;;;28.40;46.70;;;;;;5014824;28;20420;-79
2021/11/10 11:42:36;;;;;;;;;;;30.00;44.40;;;;;;5014852;28;19912;-80
2021/11/10 11:45:03;;;;;;;;;;;31.20;43.70;;;;;;5014772;28;19905;-79
2021/11/10 11:47:29;;;;;;;;;;;31.50;43.10;;;;;;5014649;28;19910;-79
2021/11/10 11:49:58;;;;;;;;;;;31.90;42.40;;;;;;5014704;28;19940;-80
2021/11/10 11:52:27;;;;;;;;;;;32.30;42.40;;;;;;5013355;28;19980;-80
2021/11/10 11:54:54;;;;;;;;;;;31.40;41.00;;;;;;5014597;28;19905;-79
2021/11/10 11:57:22;;;;;;;;;;;31.20;41.60;;;;;;5014567;28;19909;-79
2021/11/10 11:59:53;;;;;;;;;;;32.10;41.70;;;;;;5014480;28;19905;-79
2021/11/10 12:02:20;;;;;;;;;;;33.00;41.20;;;;;;5014418;28;19913;-79
2021/11/10 12:04:46;;;;;;;;;;;31.80;41.10;;;;;;5014461;28;19905;-79
2021/11/10 12:07:11;;;;;;;;;;;30.60;42.40;;;;;;5013045;28;19909;-79
2021/11/10 12:09:37;;;;;;;;;;;29.60;44.10;;;;;;5014830;28;19916;-79
2021/11/10 12:12:09;;;;;;;;;;;30.70;42.10;;;;;;5012828;28;19923;-80
2021/11/10 12:14:36;;;;;;;;;;;31.60;41.00;;;;;;5013286;28;19905;-80
2021/11/10 12:17:03;;;;;;;;;;;31.50;40.80;;;;;;5012803;28;19992;-80
2021/11/10 12:19:33;;;;;;;;;;;31.80;40.20;;;;;;5013452;28;19910;-80
2021/11/10 12:22:13;;;;;;;;;;;32.50;40.10;;;;;;5014159;28;19906;-80
2021/11/10 12:24:43;;;;;;;;;;;32.00;39.90;;;;;;5012858;28;19945;-81
2021/11/10 12:27:13;;;;;;;;;;;31.80;40.50;;;;;;5014196;28;20467;-80
2021/11/10 12:29:45;;;;;;;;;;;31.60;40.30;;;;;;5014065;28;19905;-80
2021/11/10 12:32:11;;;;;;;;;;;32.00;39.70;;;;;;5011706;28;20324;-80
2021/11/10 12:34:37;;;;;;;;;;;31.70;39.90;;;;;;5012125;28;20069;-80
2021/11/10 12:37:09;;;;;;;;;;;32.20;39.50;;;;;;5010592;28;19905;-80
2021/11/10 12:39:44;;;;;;;;;;;32.60;39.40;;;;;;5011996;28;19905;-80
2021/11/10 12:42:11;;;;;;;;;;;31.60;40.00;;;;;;5011993;28;19913;-80
2021/11/10 12:44:47;;;;;;;;;;;32.50;39.90;;;;;;5011200;28;19913;-79
2021/11/10 12:47:17;;;;;;;;;;;31.80;40.00;;;;;;5010985;28;19992;-80
2021/11/10 12:49:43;;;;;;;;;;;31.60;40.30;;;;;;5013917;28;19912;-79
2021/11/10 12:52:18;;;;;;;;;;;30.80;40.80;;;;;;5013869;28;19909;-80
2021/11/10 12:54:45;;;;;;;;;;;31.20;41.70;;;;;;5012608;28;20290;-79
2021/11/10 12:57:27;;;;;;;;;;;30.30;41.90;;;;;;5013716;28;19917;-80
2021/11/10 12:59:53;;;;;;;;;;;29.30;41.70;;;;;;5013867;28;19913;-80
2021/11/10 13:02:20;;;;;;;;;;;31.10;41.20;;;;;;5013757;28;19906;-80
2021/11/10 13:04:50;;;;;;;;;;;31.60;40.90;;;;;;5013722;28;19906;-80
2021/11/10 13:07:27;;;;;;;;;;;30.90;41.60;;;;;;5013666;28;19952;-79
2021/11/10 13:10:04;;;;;;;;;;;30.20;42.40;;;;;;5013778;28;19917;-79
2021/11/10 13:12:30;;;;;;;;;;;29.80;42.70;;;;;;5013653;28;20389;-79
2021/11/10 13:14:56;;;;;;;;;;;29.50;42.90;;;;;;5013654;28;19992;-79
2021/11/10 13:17:26;;;;;;;;;;;29.90;43.30;;;;;;5012278;28;20060;-79
2021/11/10 13:20:04;;;;;;;;;;;29.90;44.00;;;;;;5012287;28;19905;-79
2021/11/10 13:22:30;;;;;;;;;;;30.20;42.90;;;;;;5012304;28;19906;-79
2021/11/10 13:25:07;;;;;;;;;;;30.60;43.40;;;;;;5013663;28;19928;-79
2021/11/10 13:27:35;;;;;;;;;;;30.60;43.60;;;;;;5011991;28;20330;-80
2021/11/10 13:30:02;;;;;;;;;;;30.00;44.20;;;;;;5013470;28;19905;-79
2021/11/10 13:32:27;;;;;;;;;;;29.70;44.60;;;;;;5013367;28;19933;-79
2021/11/10 13:34:57;;;;;;;;;;;29.80;44.40;;;;;;5013663;28;20362;-80
2021/11/10 13:37:23;;;;;;;;;;;30.20;44.20;;;;;;5012064;28;19910;-79
2021/11/10 13:39:55;;;;;;;;;;;30.20;43.40;;;;;;5011923;28;20289;-78
2021/11/10 13:42:25;;;;;;;;;;;29.70;43.80;;;;;;5012149;28;19905;-79
2021/11/10 13:45:02;;;;;;;;;;;29.50;44.50;;;;;;5013342;28;19913;-79
2021/11/10 13:47:29;;;;;;;;;;;29.50;44.20;;;;;;5011902;28;20262;-78
2021/11/10 13:49:56;;;;;;;;;;;29.40;44.00;;;;;;5013315;28;20384;-79
2021/11/10 13:52:22;;;;;;;;;;;29.50;44.30;;;;;;5012073;28;20428;-80
2021/11/10 13:54:50;;;;;;;;;;;29.30;44.00;;;;;;5013449;28;19959;-79
2021/11/10 13:57:24;;;;;;;;;;;28.80;44.50;;;;;;5015903;28;20374;-79
2021/11/10 13:59:50;;;;;;;;;;;28.60;44.50;;;;;;5016751;28;19996;-79
2021/11/10 14:02:17;;;;;;;;;;;29.50;43.50;;;;;;5015438;28;19912;-79
2021/11/10 14:04:54;;;;;;;;;;;29.70;43.30;;;;;;5016776;28;19913;-79
2021/11/10 14:07:22;;;;;;;;;;;30.60;42.80;;;;;;5016722;28;19906;-79
2021/11/10 14:09:50;;;;;;;;;;;30.40;42.50;;;;;;5016600;28;19951;-80
2021/11/10 14:12:26;;;;;;;;;;;30.40;42.60;;;;;;5016263;28;19921;-79
2021/11/10 14:15:04;;;;;;;;;;;31.00;41.70;;;;;;5016400;28;19905;-79
2021/11/10 14:17:31;;;;;;;;;;;30.30;42.40;;;;;;5016431;28;20285;-79
2021/11/10 14:20:02;;;;;;;;;;;29.50;44.10;;;;;;5016439;28;20000;-79
2021/11/10 14:22:29;;;;;;;;;;;29.10;44.40;;;;;;5014774;28;19996;-79
2021/11/10 14:24:55;;;;;;;;;;;29.90;42.40;;;;;;5016459;28;20305;-79